sensor_id;sensor_type;location;lat;lon;timestamp;temperature;humidity
60495;DHT22;46342;49.046;11.920;2023-07-28T00:02:02;19.30;66.80
60495;DHT22;46342;49.046;11.920;2023-07-28T00:04:28;19.30;66.80
60495;DHT22;46342;49.046;11.920;2023-07-28T00:06:53;19.30;66.90
60495;DHT22;46342;49.046;11.920;2023-07-28T00:09:19;19.30;66.90
60495;DHT22;46342;49.046;11.920;2023-07-28T00:11:44;19.30;66.90
60495;DHT22;46342;49.046;11.920;2023-07-28T00:14:10;19.30;67.00
60495;DHT22;46342;49.046;11.920;2023-07-28T00:16:35;19.30;67.00
60495;DHT22;46342;49.046;11.920;2023-07-28T00:19:01;19.30;67.00
60495;DHT22;46342;49.046;11.920;2023-07-28T00:21:27;19.30;67.10
60495;DHT22;46342;49.046;11.920;2023-07-28T00:23:52;19.30;67.10
60495;DHT22;46342;49.046;11.920;2023-07-28T00:26:18;19.30;67.20
60495;DHT22;46342;49.046;11.920;2023-07-28T00:28:44;19.30;67.30
60495;DHT22;46342;49.046;11.920;2023-07-28T00:31:09;19.30;67.30
60495;DHT22;46342;49.046;11.920;2023-07-28T00:33:36;19.30;67.40
60495;DHT22;46342;49.046;11.920;2023-07-28T00:36:02;19.30;67.30
60495;DHT22;46342;49.046;11.920;2023-07-28T00:38:27;19.30;67.50
60495;DHT22;46342;49.046;11.920;2023-07-28T00:40:53;19.30;67.50
60495;DHT22;46342;49.046;11.920;2023-07-28T00:43:18;19.30;67.50
60495;DHT22;46342;49.046;11.920;2023-07-28T00:45:44;19.30;68.50
60495;DHT22;46342;49.046;11.920;2023-07-28T00:48:13;19.30;67.60
60495;DHT22;46342;49.046;11.920;2023-07-28T00:50:45;19.40;68.20
60495;DHT22;46342;49.046;11.920;2023-07-28T00:53:11;19.30;69.30
60495;DHT22;46342;49.046;11.920;2023-07-28T00:55:37;19.30;67.70
60495;DHT22;46342;49.046;11.920;2023-07-28T00:58:03;19.30;67.90
60495;DHT22;46342;49.046;11.920;2023-07-28T01:00:29;19.30;67.70
60495;DHT22;46342;49.046;11.920;2023-07-28T01:02:55;19.30;67.70
60495;DHT22;46342;49.046;11.920;2023-07-28T01:05:26;19.30;67.90
60495;DHT22;46342;49.046;11.920;2023-07-28T01:08:01;19.30;68.30
60495;DHT22;46342;49.046;11.920;2023-07-28T01:10:31;19.30;68.50
60495;DHT22;46342;49.046;11.920;2023-07-28T01:12:57;19.40;68.20
60495;DHT22;46342;49.046;11.920;2023-07-28T01:15:23;19.30;67.80
60495;DHT22;46342;49.046;11.920;2023-07-28T01:17:49;19.30;67.90
60495;DHT22;46342;49.046;11.920;2023-07-28T01:20:15;19.30;68.00
60495;DHT22;46342;49.046;11.920;2023-07-28T01:25:42;19.40;69.20
60495;DHT22;46342;49.046;11.920;2023-07-28T01:28:10;19.40;68.80
60495;DHT22;46342;49.046;11.920;2023-07-28T01:30:36;19.30;68.00
60495;DHT22;46342;49.046;11.920;2023-07-28T01:33:06;19.30;67.90
60495;DHT22;46342;49.046;11.920;2023-07-28T01:35:32;19.30;68.50
60495;DHT22;46342;49.046;11.920;2023-07-28T01:37:58;19.30;68.00
60495;DHT22;46342;49.046;11.920;2023-07-28T01:40:23;19.30;67.90
60495;DHT22;46342;49.046;11.920;2023-07-28T01:42:49;19.30;67.90
60495;DHT22;46342;49.046;11.920;2023-07-28T01:45:14;19.30;67.90
60495;DHT22;46342;49.046;11.920;2023-07-28T01:47:40;19.30;67.90
60495;DHT22;46342;49.046;11.920;2023-07-28T01:50:06;19.30;68.00
60495;DHT22;46342;49.046;11.920;2023-07-28T01:52:31;19.30;68.10
60495;DHT22;46342;49.046;11.920;2023-07-28T01:54:57;19.30;68.10
60495;DHT22;46342;49.046;11.920;2023-07-28T01:57:22;19.30;68.10
60495;DHT22;46342;49.046;11.920;2023-07-28T01:59:52;19.30;68.20
60495;DHT22;46342;49.046;11.920;2023-07-28T02:02:18;19.30;68.20
60495;DHT22;46342;49.046;11.920;2023-07-28T02:04:43;19.30;68.30
60495;DHT22;46342;49.046;11.920;2023-07-28T02:07:09;19.30;68.20
60495;DHT22;46342;49.046;11.920;2023-07-28T02:09:34;19.30;68.30
60495;DHT22;46342;49.046;11.920;2023-07-28T02:12:00;19.20;68.10
60495;DHT22;46342;49.046;11.920;2023-07-28T02:14:26;19.30;68.30
60495;DHT22;46342;49.046;11.920;2023-07-28T02:16:51;19.30;68.30
60495;DHT22;46342;49.046;11.920;2023-07-28T02:19:17;19.30;68.30
60495;DHT22;46342;49.046;11.920;2023-07-28T02:21:42;19.30;68.30
60495;DHT22;46342;49.046;11.920;2023-07-28T02:24:08;19.30;68.30
60495;DHT22;46342;49.046;11.920;2023-07-28T02:26:33;19.30;68.40
60495;DHT22;46342;49.046;11.920;2023-07-28T02:28:59;19.30;68.40
60495;DHT22;46342;49.046;11.920;2023-07-28T02:31:24;19.30;68.40
60495;DHT22;46342;49.046;11.920;2023-07-28T02:33:50;19.30;69.30
60495;DHT22;46342;49.046;11.920;2023-07-28T02:36:15;19.30;68.50
60495;DHT22;46342;49.046;11.920;2023-07-28T02:38:41;19.20;68.30
60495;DHT22;46342;49.046;11.920;2023-07-28T02:41:06;19.20;69.20
60495;DHT22;46342;49.046;11.920;2023-07-28T02:43:32;19.20;68.30
60495;DHT22;46342;49.046;11.920;2023-07-28T02:45:58;19.20;68.40
60495;DHT22;46342;49.046;11.920;2023-07-28T02:48:24;19.20;68.40
60495;DHT22;46342;49.046;11.920;2023-07-28T02:50:52;19.20;68.50
60495;DHT22;46342;49.046;11.920;2023-07-28T02:53:18;19.20;68.90
60495;DHT22;46342;49.046;11.920;2023-07-28T02:55:45;19.20;68.50
60495;DHT22;46342;49.046;11.920;2023-07-28T02:58:11;19.20;68.70
60495;DHT22;46342;49.046;11.920;2023-07-28T03:00:38;19.20;68.60
60495;DHT22;46342;49.046;11.920;2023-07-28T03:03:05;19.20;68.70
60495;DHT22;46342;49.046;11.920;2023-07-28T03:05:33;19.20;68.70
60495;DHT22;46342;49.046;11.920;2023-07-28T03:07:59;19.20;69.10
60495;DHT22;46342;49.046;11.920;2023-07-28T03:10:25;19.20;68.60
60495;DHT22;46342;49.046;11.920;2023-07-28T03:12:50;19.20;68.70
60495;DHT22;46342;49.046;11.920;2023-07-28T03:15:16;19.20;68.70
60495;DHT22;46342;49.046;11.920;2023-07-28T03:17:42;19.20;68.60
60495;DHT22;46342;49.046;11.920;2023-07-28T03:20:07;19.20;68.60
60495;DHT22;46342;49.046;11.920;2023-07-28T03:22:33;19.20;68.60
60495;DHT22;46342;49.046;11.920;2023-07-28T03:24:59;19.20;68.60
60495;DHT22;46342;49.046;11.920;2023-07-28T03:27:24;19.20;68.60
60495;DHT22;46342;49.046;11.920;2023-07-28T03:29:50;19.20;68.60
60495;DHT22;46342;49.046;11.920;2023-07-28T03:32:16;19.10;68.60
60495;DHT22;46342;49.046;11.920;2023-07-28T03:34:42;19.10;68.60
60495;DHT22;46342;49.046;11.920;2023-07-28T03:37:07;19.10;68.60
60495;DHT22;46342;49.046;11.920;2023-07-28T03:39:33;19.10;68.60
60495;DHT22;46342;49.046;11.920;2023-07-28T03:41:59;19.10;68.60
60495;DHT22;46342;49.046;11.920;2023-07-28T03:44:24;19.10;68.60
60495;DHT22;46342;49.046;11.920;2023-07-28T03:46:50;19.10;68.60
60495;DHT22;46342;49.046;11.920;2023-07-28T03:49:16;19.10;69.60
60495;DHT22;46342;49.046;11.920;2023-07-28T03:51:41;19.10;68.60
60495;DHT22;46342;49.046;11.920;2023-07-28T03:54:07;19.10;68.60
60495;DHT22;46342;49.046;11.920;2023-07-28T03:56:32;19.10;68.50
60495;DHT22;46342;49.046;11.920;2023-07-28T03:58:58;19.10;68.40
60495;DHT22;46342;49.046;11.920;2023-07-28T04:01:23;19.10;68.40
60495;DHT22;46342;49.046;11.920;2023-07-28T04:03:49;19.00;68.20
60495;DHT22;46342;49.046;11.920;2023-07-28T04:06:15;19.00;68.20
60495;DHT22;46342;49.046;11.920;2023-07-28T04:08:41;19.00;68.20
60495;DHT22;46342;49.046;11.920;2023-07-28T04:11:07;19.00;68.20
60495;DHT22;46342;49.046;11.920;2023-07-28T04:13:33;19.00;68.20
60495;DHT22;46342;49.046;11.920;2023-07-28T04:15:59;19.00;68.40
60495;DHT22;46342;49.046;11.920;2023-07-28T04:18:25;18.90;68.10
60495;DHT22;46342;49.046;11.920;2023-07-28T04:20:51;18.90;68.20
60495;DHT22;46342;49.046;11.920;2023-07-28T04:23:16;18.90;69.10
60495;DHT22;46342;49.046;11.920;2023-07-28T04:25:42;18.90;68.30
60495;DHT22;46342;49.046;11.920;2023-07-28T04:28:07;18.90;68.40
60495;DHT22;46342;49.046;11.920;2023-07-28T04:30:34;18.90;68.40
60495;DHT22;46342;49.046;11.920;2023-07-28T04:32:59;18.80;68.30
60495;DHT22;46342;49.046;11.920;2023-07-28T04:35:25;18.80;68.30
60495;DHT22;46342;49.046;11.920;2023-07-28T04:37:51;18.80;68.30
60495;DHT22;46342;49.046;11.920;2023-07-28T04:40:16;18.80;68.30
60495;DHT22;46342;49.046;11.920;2023-07-28T04:42:42;18.80;68.40
60495;DHT22;46342;49.046;11.920;2023-07-28T04:45:08;18.80;68.50
60495;DHT22;46342;49.046;11.920;2023-07-28T04:47:34;18.80;68.50
60495;DHT22;46342;49.046;11.920;2023-07-28T04:49:59;18.80;69.50
60495;DHT22;46342;49.046;11.920;2023-07-28T04:52:25;18.80;68.60
60495;DHT22;46342;49.046;11.920;2023-07-28T04:54:50;18.70;68.60
60495;DHT22;46342;49.046;11.920;2023-07-28T04:57:16;18.80;68.70
60495;DHT22;46342;49.046;11.920;2023-07-28T04:59:43;18.70;68.60
60495;DHT22;46342;49.046;11.920;2023-07-28T05:02:09;18.80;68.90
60495;DHT22;46342;49.046;11.920;2023-07-28T05:04:34;18.80;68.90
60495;DHT22;46342;49.046;11.920;2023-07-28T05:07:02;18.70;68.90
60495;DHT22;46342;49.046;11.920;2023-07-28T05:09:28;18.80;69.10
60495;DHT22;46342;49.046;11.920;2023-07-28T05:11:54;18.80;69.30
60495;DHT22;46342;49.046;11.920;2023-07-28T05:14:20;18.80;69.40
60495;DHT22;46342;49.046;11.920;2023-07-28T05:16:46;18.80;69.50
60495;DHT22;46342;49.046;11.920;2023-07-28T05:19:12;18.80;69.50
60495;DHT22;46342;49.046;11.920;2023-07-28T05:21:38;18.80;69.70
60495;DHT22;46342;49.046;11.920;2023-07-28T05:24:04;18.90;69.80
60495;DHT22;46342;49.046;11.920;2023-07-28T05:26:30;18.90;70.00
60495;DHT22;46342;49.046;11.920;2023-07-28T05:28:55;18.90;69.90
60495;DHT22;46342;49.046;11.920;2023-07-28T05:31:21;18.90;69.90
60495;DHT22;46342;49.046;11.920;2023-07-28T05:33:47;18.90;69.90
60495;DHT22;46342;49.046;11.920;2023-07-28T05:36:12;19.00;70.10
60495;DHT22;46342;49.046;11.920;2023-07-28T05:38:38;19.00;70.10
60495;DHT22;46342;49.046;11.920;2023-07-28T05:41:04;19.00;70.10
60495;DHT22;46342;49.046;11.920;2023-07-28T05:43:30;19.00;70.10
60495;DHT22;46342;49.046;11.920;2023-07-28T05:45:57;19.00;70.20
60495;DHT22;46342;49.046;11.920;2023-07-28T05:48:22;19.10;70.30
60495;DHT22;46342;49.046;11.920;2023-07-28T05:50:48;19.10;70.30
60495;DHT22;46342;49.046;11.920;2023-07-28T05:53:14;19.10;70.40
60495;DHT22;46342;49.046;11.920;2023-07-28T05:55:40;19.10;70.40
60495;DHT22;46342;49.046;11.920;2023-07-28T05:58:05;19.20;70.60
60495;DHT22;46342;49.046;11.920;2023-07-28T06:00:31;19.20;70.60
60495;DHT22;46342;49.046;11.920;2023-07-28T06:02:57;19.20;70.60
60495;DHT22;46342;49.046;11.920;2023-07-28T06:05:22;19.30;70.80
60495;DHT22;46342;49.046;11.920;2023-07-28T06:07:48;19.30;70.90
60495;DHT22;46342;49.046;11.920;2023-07-28T06:10:14;19.30;70.90
60495;DHT22;46342;49.046;11.920;2023-07-28T06:12:39;19.40;71.10
60495;DHT22;46342;49.046;11.920;2023-07-28T06:15:06;19.40;71.00
60495;DHT22;46342;49.046;11.920;2023-07-28T06:17:31;19.50;71.10
60495;DHT22;46342;49.046;11.920;2023-07-28T06:19:58;19.50;71.10
60495;DHT22;46342;49.046;11.920;2023-07-28T06:22:24;19.50;71.10
60495;DHT22;46342;49.046;11.920;2023-07-28T06:24:50;19.50;71.10
60495;DHT22;46342;49.046;11.920;2023-07-28T06:27:15;19.60;71.20
60495;DHT22;46342;49.046;11.920;2023-07-28T06:29:41;19.60;71.20
60495;DHT22;46342;49.046;11.920;2023-07-28T06:32:07;19.60;71.20
60495;DHT22;46342;49.046;11.920;2023-07-28T06:34:33;19.70;71.30
60495;DHT22;46342;49.046;11.920;2023-07-28T06:36:58;19.70;71.30
60495;DHT22;46342;49.046;11.920;2023-07-28T06:39:24;19.70;71.40
60495;DHT22;46342;49.046;11.920;2023-07-28T06:41:50;19.80;71.40
60495;DHT22;46342;49.046;11.920;2023-07-28T06:44:16;19.80;71.40
60495;DHT22;46342;49.046;11.920;2023-07-28T06:46:41;19.80;71.40
60495;DHT22;46342;49.046;11.920;2023-07-28T06:49:07;19.90;71.60
60495;DHT22;46342;49.046;11.920;2023-07-28T06:51:33;19.90;71.60
60495;DHT22;46342;49.046;11.920;2023-07-28T06:53:59;19.90;71.90
60495;DHT22;46342;49.046;11.920;2023-07-28T06:56:25;20.00;71.60
60495;DHT22;46342;49.046;11.920;2023-07-28T06:58:50;20.00;71.60
60495;DHT22;46342;49.046;11.920;2023-07-28T07:01:16;20.10;71.70
60495;DHT22;46342;49.046;11.920;2023-07-28T07:03:43;20.10;71.60
60495;DHT22;46342;49.046;11.920;2023-07-28T07:06:09;20.10;71.40
60495;DHT22;46342;49.046;11.920;2023-07-28T07:08:34;20.10;71.40
60495;DHT22;46342;49.046;11.920;2023-07-28T07:11:00;20.20;71.50
60495;DHT22;46342;49.046;11.920;2023-07-28T07:13:26;20.20;71.40
60495;DHT22;46342;49.046;11.920;2023-07-28T07:15:51;20.20;71.40
60495;DHT22;46342;49.046;11.920;2023-07-28T07:18:17;20.30;71.50
60495;DHT22;46342;49.046;11.920;2023-07-28T07:20:42;20.30;71.50
60495;DHT22;46342;49.046;11.920;2023-07-28T07:23:08;20.30;71.50
60495;DHT22;46342;49.046;11.920;2023-07-28T07:25:34;20.40;71.70
60495;DHT22;46342;49.046;11.920;2023-07-28T07:27:59;20.40;71.60
60495;DHT22;46342;49.046;11.920;2023-07-28T07:30:25;20.40;71.70
60495;DHT22;46342;49.046;11.920;2023-07-28T07:32:50;20.50;72.80
60495;DHT22;46342;49.046;11.920;2023-07-28T07:35:16;20.50;71.90
60495;DHT22;46342;49.046;11.920;2023-07-28T07:37:42;20.50;71.90
60495;DHT22;46342;49.046;11.920;2023-07-28T07:40:07;20.60;72.10
60495;DHT22;46342;49.046;11.920;2023-07-28T07:42:48;20.60;72.10
60495;DHT22;46342;49.046;11.920;2023-07-28T07:45:15;20.70;73.00
60495;DHT22;46342;49.046;11.920;2023-07-28T07:47:41;20.70;72.10
60495;DHT22;46342;49.046;11.920;2023-07-28T07:50:08;20.80;72.20
60495;DHT22;46342;49.046;11.920;2023-07-28T07:52:35;20.90;72.40
60495;DHT22;46342;49.046;11.920;2023-07-28T07:55:01;20.90;72.30
60495;DHT22;46342;49.046;11.920;2023-07-28T07:57:27;20.90;72.30
60495;DHT22;46342;49.046;11.920;2023-07-28T07:59:53;21.10;72.50
60495;DHT22;46342;49.046;11.920;2023-07-28T08:02:18;21.10;72.50
60495;DHT22;46342;49.046;11.920;2023-07-28T08:04:44;21.20;72.70
60495;DHT22;46342;49.046;11.920;2023-07-28T08:07:09;21.20;72.50
60495;DHT22;46342;49.046;11.920;2023-07-28T08:09:35;21.30;72.40
60495;DHT22;46342;49.046;11.920;2023-07-28T08:12:01;21.40;73.40
60495;DHT22;46342;49.046;11.920;2023-07-28T08:14:27;21.40;72.50
60495;DHT22;46342;49.046;11.920;2023-07-28T08:16:53;21.50;72.40
60495;DHT22;46342;49.046;11.920;2023-07-28T08:19:19;21.60;72.50
60495;DHT22;46342;49.046;11.920;2023-07-28T08:21:45;21.60;72.20
60495;DHT22;46342;49.046;11.920;2023-07-28T08:24:10;21.70;72.10
60495;DHT22;46342;49.046;11.920;2023-07-28T08:26:37;21.80;72.00
60495;DHT22;46342;49.046;11.920;2023-07-28T08:29:02;21.80;71.70
60495;DHT22;46342;49.046;11.920;2023-07-28T08:31:28;21.90;71.60
60495;DHT22;46342;49.046;11.920;2023-07-28T08:33:54;21.90;71.40
60495;DHT22;46342;49.046;11.920;2023-07-28T08:36:19;21.90;71.30
60495;DHT22;46342;49.046;11.920;2023-07-28T08:38:45;22.00;71.40
60495;DHT22;46342;49.046;11.920;2023-07-28T08:41:12;22.10;71.40
60495;DHT22;46342;49.046;11.920;2023-07-28T08:43:37;22.10;71.20
60495;DHT22;46342;49.046;11.920;2023-07-28T08:46:03;22.20;71.30
60495;DHT22;46342;49.046;11.920;2023-07-28T08:48:29;22.20;70.70
60495;DHT22;46342;49.046;11.920;2023-07-28T08:50:54;22.20;70.50
60495;DHT22;46342;49.046;11.920;2023-07-28T08:53:20;22.20;70.30
60495;DHT22;46342;49.046;11.920;2023-07-28T08:55:45;22.30;70.20
60495;DHT22;46342;49.046;11.920;2023-07-28T08:58:19;22.30;70.00
60495;DHT22;46342;49.046;11.920;2023-07-28T09:00:46;22.40;69.30
60495;DHT22;46342;49.046;11.920;2023-07-28T09:03:15;22.40;69.50
60495;DHT22;46342;49.046;11.920;2023-07-28T09:05:42;22.30;69.40
60495;DHT22;46342;49.046;11.920;2023-07-28T09:08:08;22.40;69.50
60495;DHT22;46342;49.046;11.920;2023-07-28T09:13:11;22.40;69.30
60495;DHT22;46342;49.046;11.920;2023-07-28T09:15:40;22.30;69.10
60495;DHT22;46342;49.046;11.920;2023-07-28T09:18:09;22.30;69.00
60495;DHT22;46342;49.046;11.920;2023-07-28T09:20:37;22.30;69.10
60495;DHT22;46342;49.046;11.920;2023-07-28T09:23:03;22.30;69.20
60495;DHT22;46342;49.046;11.920;2023-07-28T09:25:30;22.30;69.10
60495;DHT22;46342;49.046;11.920;2023-07-28T09:27:57;22.20;69.10
60495;DHT22;46342;49.046;11.920;2023-07-28T09:30:24;22.20;69.20
60495;DHT22;46342;49.046;11.920;2023-07-28T09:32:51;22.20;69.10
60495;DHT22;46342;49.046;11.920;2023-07-28T09:35:18;22.20;69.10
60495;DHT22;46342;49.046;11.920;2023-07-28T09:37:46;22.10;68.90
60495;DHT22;46342;49.046;11.920;2023-07-28T09:40:14;22.10;69.00
60495;DHT22;46342;49.046;11.920;2023-07-28T09:42:44;22.10;69.00
60495;DHT22;46342;49.046;11.920;2023-07-28T09:45:15;22.10;69.20
60495;DHT22;46342;49.046;11.920;2023-07-28T09:47:44;22.10;69.20
60495;DHT22;46342;49.046;11.920;2023-07-28T09:50:10;22.00;69.20
60495;DHT22;46342;49.046;11.920;2023-07-28T09:52:42;22.00;69.20
60495;DHT22;46342;49.046;11.920;2023-07-28T09:55:09;22.00;69.50
60495;DHT22;46342;49.046;11.920;2023-07-28T09:57:56;22.00;69.60
60495;DHT22;46342;49.046;11.920;2023-07-28T10:00:23;22.00;70.40
60495;DHT22;46342;49.046;11.920;2023-07-28T10:02:49;22.00;69.90
60495;DHT22;46342;49.046;11.920;2023-07-28T10:05:15;22.00;70.50
60495;DHT22;46342;49.046;11.920;2023-07-28T10:07:45;22.00;70.40
60495;DHT22;46342;49.046;11.920;2023-07-28T10:10:12;22.10;71.10
60495;DHT22;46342;49.046;11.920;2023-07-28T10:12:45;22.10;71.10
60495;DHT22;46342;49.046;11.920;2023-07-28T10:15:19;22.20;71.70
60495;DHT22;46342;49.046;11.920;2023-07-28T10:17:47;22.20;71.50
60495;DHT22;46342;49.046;11.920;2023-07-28T10:20:37;22.30;71.30
60495;DHT22;46342;49.046;11.920;2023-07-28T10:23:06;22.40;72.70
60495;DHT22;46342;49.046;11.920;2023-07-28T10:25:37;22.40;71.80
60495;DHT22;46342;49.046;11.920;2023-07-28T10:28:04;22.50;71.70
60495;DHT22;46342;49.046;11.920;2023-07-28T10:30:38;22.60;71.60
60495;DHT22;46342;49.046;11.920;2023-07-28T10:33:43;22.70;71.50
60495;DHT22;46342;49.046;11.920;2023-07-28T10:36:32;22.80;71.00
60495;DHT22;46342;49.046;11.920;2023-07-28T10:39:16;22.90;70.90
60495;DHT22;46342;49.046;11.920;2023-07-28T10:42:05;22.90;70.50
60495;DHT22;46342;49.046;11.920;2023-07-28T10:44:31;22.90;70.10
60495;DHT22;46342;49.046;11.920;2023-07-28T10:46:58;22.90;70.00
60495;DHT22;46342;49.046;11.920;2023-07-28T10:49:25;23.00;69.90
60495;DHT22;46342;49.046;11.920;2023-07-28T10:51:51;22.90;69.70
60495;DHT22;46342;49.046;11.920;2023-07-28T10:54:16;23.00;69.80
60495;DHT22;46342;49.046;11.920;2023-07-28T10:56:45;23.00;69.80
60495;DHT22;46342;49.046;11.920;2023-07-28T10:59:11;23.00;69.60
60495;DHT22;46342;49.046;11.920;2023-07-28T11:01:38;23.00;69.50
60495;DHT22;46342;49.046;11.920;2023-07-28T11:06:32;23.10;69.10
60495;DHT22;46342;49.046;11.920;2023-07-28T11:08:58;23.10;69.00
60495;DHT22;46342;49.046;11.920;2023-07-28T11:11:23;23.10;68.90
60495;DHT22;46342;49.046;11.920;2023-07-28T11:13:49;23.10;69.00
60495;DHT22;46342;49.046;11.920;2023-07-28T11:16:15;23.10;69.20
60495;DHT22;46342;49.046;11.920;2023-07-28T11:18:40;23.10;69.40
60495;DHT22;46342;49.046;11.920;2023-07-28T11:21:06;23.20;69.80
60495;DHT22;46342;49.046;11.920;2023-07-28T11:23:31;23.30;70.30
60495;DHT22;46342;49.046;11.920;2023-07-28T11:25:58;23.40;70.60
60495;DHT22;46342;49.046;11.920;2023-07-28T11:28:24;23.50;70.50
60495;DHT22;46342;49.046;11.920;2023-07-28T11:30:50;23.60;70.20
60495;DHT22;46342;49.046;11.920;2023-07-28T11:33:16;23.70;69.80
60495;DHT22;46342;49.046;11.920;2023-07-28T11:35:45;23.80;69.50
60495;DHT22;46342;49.046;11.920;2023-07-28T11:38:12;23.80;69.00
60495;DHT22;46342;49.046;11.920;2023-07-28T11:40:40;23.80;69.20
60495;DHT22;46342;49.046;11.920;2023-07-28T11:43:06;23.90;68.90
60495;DHT22;46342;49.046;11.920;2023-07-28T11:45:32;24.00;68.80
60495;DHT22;46342;49.046;11.920;2023-07-28T11:48:00;24.10;68.50
60495;DHT22;46342;49.046;11.920;2023-07-28T11:50:29;24.20;67.80
60495;DHT22;46342;49.046;11.920;2023-07-28T11:52:57;24.30;67.70
60495;DHT22;46342;49.046;11.920;2023-07-28T11:55:23;24.30;67.00
60495;DHT22;46342;49.046;11.920;2023-07-28T11:57:50;24.30;67.00
60495;DHT22;46342;49.046;11.920;2023-07-28T12:00:16;24.30;66.60
60495;DHT22;46342;49.046;11.920;2023-07-28T12:02:43;24.40;66.40
60495;DHT22;46342;49.046;11.920;2023-07-28T12:05:13;24.40;66.20
60495;DHT22;46342;49.046;11.920;2023-07-28T12:07:39;24.40;65.70
60495;DHT22;46342;49.046;11.920;2023-07-28T12:10:05;24.40;66.00
60495;DHT22;46342;49.046;11.920;2023-07-28T12:12:40;24.40;65.90
60495;DHT22;46342;49.046;11.920;2023-07-28T12:15:27;24.50;65.30
60495;DHT22;46342;49.046;11.920;2023-07-28T12:18:19;24.50;65.30
60495;DHT22;46342;49.046;11.920;2023-07-28T12:20:54;24.50;65.20
60495;DHT22;46342;49.046;11.920;2023-07-28T12:23:22;24.50;65.50
60495;DHT22;46342;49.046;11.920;2023-07-28T12:25:48;24.60;66.10
60495;DHT22;46342;49.046;11.920;2023-07-28T12:28:15;24.60;66.40
60495;DHT22;46342;49.046;11.920;2023-07-28T12:30:41;24.60;66.30
60495;DHT22;46342;49.046;11.920;2023-07-28T12:33:07;24.60;66.50
60495;DHT22;46342;49.046;11.920;2023-07-28T12:35:34;24.70;67.60
60495;DHT22;46342;49.046;11.920;2023-07-28T12:38:03;24.80;66.90
60495;DHT22;46342;49.046;11.920;2023-07-28T12:40:31;24.90;66.60
60495;DHT22;46342;49.046;11.920;2023-07-28T12:42:58;25.00;66.00
60495;DHT22;46342;49.046;11.920;2023-07-28T12:45:24;25.10;66.20
60495;DHT22;46342;49.046;11.920;2023-07-28T12:47:52;25.10;66.10
60495;DHT22;46342;49.046;11.920;2023-07-28T12:50:18;25.30;65.80
60495;DHT22;46342;49.046;11.920;2023-07-28T12:52:44;25.40;65.70
60495;DHT22;46342;49.046;11.920;2023-07-28T12:55:09;25.50;65.10
60495;DHT22;46342;49.046;11.920;2023-07-28T12:57:35;25.60;64.40
60495;DHT22;46342;49.046;11.920;2023-07-28T13:00:01;25.70;63.70
60495;DHT22;46342;49.046;11.920;2023-07-28T13:02:26;25.70;63.00
60495;DHT22;46342;49.046;11.920;2023-07-28T13:04:52;25.70;62.40
60495;DHT22;46342;49.046;11.920;2023-07-28T13:07:17;25.70;62.20
60495;DHT22;46342;49.046;11.920;2023-07-28T13:09:44;25.70;62.10
60495;DHT22;46342;49.046;11.920;2023-07-28T13:12:09;25.70;62.00
60495;DHT22;46342;49.046;11.920;2023-07-28T13:14:35;25.70;62.00
60495;DHT22;46342;49.046;11.920;2023-07-28T13:17:01;25.70;61.90
60495;DHT22;46342;49.046;11.920;2023-07-28T13:19:26;25.70;62.30
60495;DHT22;46342;49.046;11.920;2023-07-28T13:21:52;25.70;62.20
60495;DHT22;46342;49.046;11.920;2023-07-28T13:24:17;25.80;62.30
60495;DHT22;46342;49.046;11.920;2023-07-28T13:26:43;25.80;62.30
60495;DHT22;46342;49.046;11.920;2023-07-28T13:29:08;25.90;62.20
60495;DHT22;46342;49.046;11.920;2023-07-28T13:31:34;25.90;62.00
60495;DHT22;46342;49.046;11.920;2023-07-28T13:34:00;26.00;61.80
60495;DHT22;46342;49.046;11.920;2023-07-28T13:36:26;26.00;61.90
60495;DHT22;46342;49.046;11.920;2023-07-28T13:38:51;26.10;62.10
60495;DHT22;46342;49.046;11.920;2023-07-28T13:41:17;26.20;61.70
60495;DHT22;46342;49.046;11.920;2023-07-28T13:43:42;26.20;61.40
60495;DHT22;46342;49.046;11.920;2023-07-28T13:46:08;26.30;61.30
60495;DHT22;46342;49.046;11.920;2023-07-28T13:48:34;26.40;61.20
60495;DHT22;46342;49.046;11.920;2023-07-28T13:51:01;26.40;60.50
60495;DHT22;46342;49.046;11.920;2023-07-28T13:53:27;26.40;60.30
60495;DHT22;46342;49.046;11.920;2023-07-28T13:55:54;26.50;60.10
60495;DHT22;46342;49.046;11.920;2023-07-28T13:58:19;26.50;59.90
60495;DHT22;46342;49.046;11.920;2023-07-28T14:00:45;26.50;59.80
60495;DHT22;46342;49.046;11.920;2023-07-28T14:03:10;26.50;59.70
60495;DHT22;46342;49.046;11.920;2023-07-28T14:05:36;26.50;59.40
60495;DHT22;46342;49.046;11.920;2023-07-28T14:08:02;26.60;59.30
60495;DHT22;46342;49.046;11.920;2023-07-28T14:10:27;26.60;59.20
60495;DHT22;46342;49.046;11.920;2023-07-28T14:12:53;26.60;59.10
60495;DHT22;46342;49.046;11.920;2023-07-28T14:15:19;26.60;59.00
60495;DHT22;46342;49.046;11.920;2023-07-28T14:17:44;26.60;58.80
60495;DHT22;46342;49.046;11.920;2023-07-28T14:20:10;26.60;58.60
60495;DHT22;46342;49.046;11.920;2023-07-28T14:22:37;26.60;58.40
60495;DHT22;46342;49.046;11.920;2023-07-28T14:25:02;26.60;58.20
60495;DHT22;46342;49.046;11.920;2023-07-28T14:27:28;26.50;58.10
60495;DHT22;46342;49.046;11.920;2023-07-28T14:29:54;26.50;58.00
60495;DHT22;46342;49.046;11.920;2023-07-28T14:32:19;26.50;57.90
60495;DHT22;46342;49.046;11.920;2023-07-28T14:34:45;26.50;57.90
60495;DHT22;46342;49.046;11.920;2023-07-28T14:37:10;26.40;57.80
60495;DHT22;46342;49.046;11.920;2023-07-28T14:39:36;26.40;57.80
60495;DHT22;46342;49.046;11.920;2023-07-28T14:42:02;26.40;57.90
60495;DHT22;46342;49.046;11.920;2023-07-28T14:44:28;26.40;57.90
60495;DHT22;46342;49.046;11.920;2023-07-28T14:46:54;26.40;58.00
60495;DHT22;46342;49.046;11.920;2023-07-28T14:49:20;26.40;58.00
60495;DHT22;46342;49.046;11.920;2023-07-28T14:51:46;26.40;58.10
60495;DHT22;46342;49.046;11.920;2023-07-28T14:54:11;26.40;58.00
60495;DHT22;46342;49.046;11.920;2023-07-28T14:56:37;26.40;58.10
60495;DHT22;46342;49.046;11.920;2023-07-28T14:59:03;26.50;58.10
60495;DHT22;46342;49.046;11.920;2023-07-28T15:01:32;26.50;58.10
60495;DHT22;46342;49.046;11.920;2023-07-28T15:03:58;26.50;58.00
60495;DHT22;46342;49.046;11.920;2023-07-28T15:06:24;26.60;57.80
60495;DHT22;46342;49.046;11.920;2023-07-28T15:08:50;26.60;57.70
60495;DHT22;46342;49.046;11.920;2023-07-28T15:11:16;26.60;57.70
60495;DHT22;46342;49.046;11.920;2023-07-28T15:13:43;26.70;57.60
60495;DHT22;46342;49.046;11.920;2023-07-28T15:16:09;26.70;57.60
60495;DHT22;46342;49.046;11.920;2023-07-28T15:18:34;26.70;57.90
60495;DHT22;46342;49.046;11.920;2023-07-28T15:21:00;26.80;57.30